createdAt,value
2017-06-13T00:00:31.388Z,996.3
2017-06-13T00:01:41.773Z,996.39
2017-06-13T00:02:52.120Z,996.4
2017-06-13T00:04:02.477Z,996.39
2017-06-13T00:05:12.515Z,996.44
2017-06-13T00:06:22.863Z,996.45
2017-06-13T00:07:33.225Z,996.49
2017-06-13T00:08:43.658Z,996.53
2017-06-13T00:09:53.376Z,996.53
2017-06-13T00:11:03.721Z,996.53
2017-06-13T00:12:14.078Z,996.51
2017-06-13T00:13:24.466Z,996.53
2017-06-13T00:14:34.816Z,996.58
2017-06-13T00:15:45.181Z,996.54
2017-06-13T00:16:55.536Z,996.57
2017-06-13T00:18:05.563Z,996.59
2017-06-13T00:19:15.970Z,996.58
2017-06-13T00:20:26.311Z,996.63
2017-06-13T00:21:36.342Z,996.58
2017-06-13T00:22:46.688Z,996.62
2017-06-13T00:23:57.057Z,996.57
2017-06-13T00:25:07.142Z,996.65
2017-06-13T00:26:17.499Z,996.66
2017-06-13T00:27:27.856Z,996.62
2017-06-13T00:28:38.214Z,996.57
2017-06-13T00:29:48.611Z,996.6
2017-06-13T00:30:58.956Z,996.52
2017-06-13T00:32:09.352Z,996.64
2017-06-13T00:33:19.695Z,996.66
2017-06-13T00:34:29.731Z,996.68
2017-06-13T00:35:40.084Z,996.7
2017-06-13T00:36:50.125Z,996.71
2017-06-13T00:38:00.197Z,996.72
2017-06-13T00:39:10.563Z,996.76
2017-06-13T00:40:20.911Z,996.75
2017-06-13T00:41:31.286Z,996.71
2017-06-13T00:42:41.688Z,996.73
2017-06-13T00:43:52.051Z,996.78
2017-06-13T00:45:02.403Z,996.8
2017-06-13T00:46:12.754Z,996.79
2017-06-13T00:47:23.097Z,996.75
2017-06-13T00:48:33.484Z,996.77
2017-06-13T00:49:43.837Z,996.76
2017-06-13T00:50:54.171Z,996.74
2017-06-13T00:52:04.519Z,996.76
2017-06-13T00:53:14.855Z,996.71
2017-06-13T00:54:24.956Z,996.72
2017-06-13T00:55:35.290Z,996.76
2017-06-13T00:56:45.675Z,996.74
2017-06-13T00:57:55.722Z,996.84
2017-06-13T00:59:06.066Z,996.8
2017-06-13T01:00:16.155Z,996.88
2017-06-13T01:01:26.197Z,996.85
2017-06-13T01:02:36.234Z,996.87
2017-06-13T01:03:46.576Z,996.89
2017-06-13T01:04:56.622Z,996.92
2017-06-13T01:06:07.014Z,996.98
2017-06-13T01:07:17.347Z,996.97
2017-06-13T01:08:27.389Z,996.97
2017-06-13T01:09:37.729Z,996.94
2017-06-13T01:10:47.757Z,996.91
2017-06-13T01:11:57.586Z,996.88
2017-06-13T01:13:07.607Z,996.84
2017-06-13T01:14:17.958Z,996.9
2017-06-13T01:15:28.342Z,996.86
2017-06-13T01:16:38.057Z,996.92
2017-06-13T01:17:48.395Z,996.94
2017-06-13T01:18:58.424Z,996.96
2017-06-13T01:20:08.461Z,996.98
2017-06-13T01:21:18.494Z,997
2017-06-13T01:22:28.839Z,997.01
2017-06-13T01:23:39.240Z,997.05
2017-06-13T01:24:49.587Z,997.04
2017-06-13T01:25:59.946Z,997.05
2017-06-13T01:27:10.292Z,997.07
2017-06-13T01:28:20.636Z,997.04
2017-06-13T01:29:30.977Z,997.07
2017-06-13T01:30:41.320Z,997.07
2017-06-13T01:31:51.700Z,997.09
2017-06-13T01:33:01.424Z,997.06
2017-06-13T01:34:11.455Z,997.04
2017-06-13T01:35:21.838Z,997.09
2017-06-13T01:36:31.559Z,997.08
2017-06-13T01:37:41.916Z,997.14
2017-06-13T01:38:51.939Z,997.13
2017-06-13T01:40:02.284Z,997.14
2017-06-13T01:41:12.323Z,997.12
2017-06-13T01:42:22.348Z,997.09
2017-06-13T01:43:32.383Z,997.07
2017-06-13T01:44:42.464Z,997.12
2017-06-13T01:45:52.498Z,997.13
2017-06-13T01:47:02.586Z,997.21
2017-06-13T01:48:12.944Z,997.25
2017-06-13T01:49:23.272Z,997.25
2017-06-13T01:50:33.317Z,997.26
2017-06-13T01:51:43.673Z,997.28
2017-06-13T01:52:53.700Z,997.31
2017-06-13T01:54:03.741Z,997.24
2017-06-13T01:55:14.086Z,997.24
2017-06-13T01:56:24.456Z,997.26
2017-06-13T01:57:34.852Z,997.32
2017-06-13T01:58:45.245Z,997.29
2017-06-13T01:59:55.293Z,997.33
2017-06-13T02:01:05.635Z,997.3
2017-06-13T02:02:15.659Z,997.3
2017-06-13T02:03:25.997Z,997.29
2017-06-13T02:04:36.093Z,997.31
2017-06-13T02:05:46.440Z,997.29
2017-06-13T02:06:56.478Z,997.33
2017-06-13T02:08:06.825Z,997.34
2017-06-13T02:09:17.180Z,997.34
2017-06-13T02:10:26.352Z,997.39
2017-06-13T02:11:36.708Z,997.35
2017-06-13T02:12:47.054Z,997.35
2017-06-13T02:13:57.409Z,997.34
2017-06-13T02:15:07.755Z,997.33
2017-06-13T02:16:17.791Z,997.36
2017-06-13T02:17:28.147Z,997.35
2017-06-13T02:18:38.494Z,997.34
2017-06-13T02:19:48.851Z,997.36
2017-06-13T02:20:58.887Z,997.3
2017-06-13T02:22:08.976Z,997.39
2017-06-13T02:23:19.336Z,997.39
2017-06-13T02:24:29.697Z,997.41
2017-06-13T02:25:40.037Z,997.39
2017-06-13T02:26:50.389Z,997.45
2017-06-13T02:28:00.467Z,997.46
2017-06-13T02:29:10.505Z,997.47
2017-06-13T02:30:20.846Z,997.51
2017-06-13T02:31:30.915Z,997.54
2017-06-13T02:32:40.944Z,997.51
2017-06-13T02:33:51.343Z,997.54
2017-06-13T02:35:01.383Z,997.61
2017-06-13T02:36:11.421Z,997.6
2017-06-13T02:37:21.454Z,997.59
2017-06-13T02:38:31.501Z,997.59
2017-06-13T02:39:41.886Z,997.56
2017-06-13T02:40:52.228Z,997.55
2017-06-13T02:42:02.274Z,997.57
2017-06-13T02:43:12.652Z,997.6
2017-06-13T02:44:22.995Z,997.56
2017-06-13T02:45:33.379Z,997.65
2017-06-13T02:46:42.802Z,997.62
2017-06-13T02:47:52.837Z,997.69
2017-06-13T02:49:03.174Z,997.66
2017-06-13T02:50:13.523Z,997.62
2017-06-13T02:51:23.606Z,997.62
2017-06-13T02:52:33.635Z,997.64
2017-06-13T02:53:43.983Z,997.66
2017-06-13T02:54:54.329Z,997.71
2017-06-13T02:56:04.672Z,997.74
2017-06-13T02:57:14.757Z,997.7
2017-06-13T02:58:25.127Z,997.74
2017-06-13T02:59:35.474Z,997.76
2017-06-13T03:00:45.512Z,997.74
2017-06-13T03:01:55.851Z,997.75
2017-06-13T03:33:17.769Z,998.07
2017-06-13T03:34:28.120Z,998.13
2017-06-13T03:35:37.516Z,998.06
2017-06-13T03:36:48.052Z,998.05
2017-06-13T03:37:58.444Z,998.05
2017-06-13T03:39:08.796Z,998.05
2017-06-13T03:40:19.136Z,998.05
2017-06-13T03:41:29.175Z,998.04
2017-06-13T03:42:39.511Z,998.01
2017-06-13T03:43:49.227Z,998.04
2017-06-13T03:44:59.681Z,998.04
2017-06-13T03:46:10.047Z,998.04
2017-06-13T03:47:20.095Z,998.02
2017-06-13T03:48:30.111Z,997.94
2017-06-13T03:49:39.827Z,998.03
2017-06-13T03:50:50.210Z,998.06
2017-06-13T03:52:00.549Z,998.09
2017-06-13T03:53:10.878Z,998.08
2017-06-13T03:54:21.219Z,998.17
2017-06-13T03:55:31.258Z,998.14
2017-06-13T03:56:40.968Z,998.12
2017-06-13T03:57:50.683Z,998.14
2017-06-13T03:59:01.029Z,998.17
2017-06-13T04:00:11.372Z,998.18
2017-06-13T04:01:21.717Z,998.14
2017-06-13T04:02:31.493Z,998.12
2017-06-13T04:03:41.847Z,998.15
2017-06-13T04:04:52.199Z,998.15
2017-06-13T04:06:02.227Z,998.23
2017-06-13T04:07:12.264Z,998.17
2017-06-13T04:08:22.675Z,998.2
2017-06-13T04:09:33.019Z,998.18
2017-06-13T04:10:43.346Z,998.18
2017-06-13T04:11:53.686Z,998.19
2017-06-13T04:13:04.048Z,998.27
2017-06-13T04:14:14.431Z,998.22
2017-06-13T04:15:24.790Z,998.24
2017-06-13T04:16:34.857Z,998.27
2017-06-13T04:17:45.211Z,998.38
2017-06-13T04:18:55.558Z,998.78
2017-06-13T04:20:05.966Z,999.07
2017-06-13T04:21:15.683Z,999.15
2017-06-13T04:22:26.016Z,999.26
2017-06-13T04:23:36.057Z,999.26
2017-06-13T04:24:46.406Z,999.17
2017-06-13T04:25:56.804Z,999.22
2017-06-13T04:27:06.845Z,999.33
2017-06-13T04:28:16.559Z,999.51
2017-06-13T04:29:26.911Z,999.38
2017-06-13T04:30:37.254Z,999.23
2017-06-13T04:31:47.284Z,999.2
2017-06-13T04:32:57.635Z,999.37
2017-06-13T04:34:07.669Z,999.41
2017-06-13T04:35:18.026Z,999.39
2017-06-13T04:36:28.389Z,999.31
2017-06-13T04:37:38.757Z,999.28
2017-06-13T04:38:49.112Z,999.12
2017-06-13T04:39:59.469Z,999.06
2017-06-13T04:41:09.818Z,999.07
2017-06-13T04:42:19.554Z,999.07
2017-06-13T04:43:29.913Z,999.02
2017-06-13T04:44:40.257Z,998.98
2017-06-13T04:45:50.607Z,998.97
2017-06-13T04:47:00.643Z,999.01
2017-06-13T04:48:11.007Z,998.96
2017-06-13T04:49:21.407Z,998.99
2017-06-13T04:50:31.753Z,998.99
2017-06-13T04:51:42.090Z,999.02
2017-06-13T04:52:52.466Z,999.06
2017-06-13T04:54:02.828Z,999.16
2017-06-13T04:55:13.176Z,999.14
2017-06-13T04:56:23.213Z,999.17
2017-06-13T04:57:33.559Z,999.21
2017-06-13T04:58:43.902Z,999.2
2017-06-13T04:59:54.258Z,999.26
2017-06-13T05:01:04.653Z,999.25
2017-06-13T05:02:15.042Z,999.28
2017-06-13T05:03:25.068Z,999.35
2017-06-13T05:04:35.355Z,999.42
2017-06-13T05:05:45.393Z,999.41
2017-06-13T05:06:55.757Z,999.45
2017-06-13T05:08:06.100Z,999.46
2017-06-13T05:09:15.859Z,999.33
2017-06-13T05:10:26.194Z,999.25
2017-06-13T05:11:36.552Z,999.23
2017-06-13T05:12:46.698Z,999.17
2017-06-13T05:13:57.043Z,999.17
2017-06-13T05:15:06.778Z,999.15
2017-06-13T05:16:16.503Z,999.17
2017-06-13T05:17:26.538Z,999.2
2017-06-13T05:18:36.658Z,999.24
2017-06-13T05:19:47.011Z,999.24
2017-06-13T05:20:57.093Z,999.28
2017-06-13T05:22:07.141Z,999.24
2017-06-13T05:23:17.497Z,999.27
2017-06-13T05:24:27.848Z,999.26
2017-06-13T05:25:38.189Z,999.21
2017-06-13T05:26:48.540Z,999.3
2017-06-13T05:27:58.896Z,999.24
2017-06-13T05:29:09.239Z,999.32
2017-06-13T05:30:19.349Z,999.32
2017-06-13T05:31:29.734Z,999.34
2017-06-13T05:32:40.104Z,999.4
2017-06-13T05:33:50.140Z,999.36
2017-06-13T05:35:00.500Z,999.36
2017-06-13T05:36:10.916Z,999.41
2017-06-13T05:37:20.663Z,999.4
2017-06-13T05:38:31.018Z,999.43
2017-06-13T05:39:41.362Z,999.47
2017-06-13T05:40:51.385Z,999.46
2017-06-13T05:42:01.788Z,999.45
2017-06-13T05:43:12.124Z,999.46
2017-06-13T05:44:22.521Z,999.42
2017-06-13T05:45:32.598Z,999.38
2017-06-13T05:46:42.933Z,999.38
2017-06-13T05:47:53.019Z,999.4
2017-06-13T05:49:03.383Z,999.38
2017-06-13T05:50:13.428Z,999.43
2017-06-13T05:51:23.467Z,999.42
2017-06-13T05:52:33.821Z,999.45
2017-06-13T05:53:44.229Z,999.41
2017-06-13T05:54:54.584Z,999.48
2017-06-13T05:56:04.962Z,999.49
2017-06-13T05:57:15.325Z,999.46
2017-06-13T05:58:25.673Z,999.51
2017-06-13T05:59:36.077Z,999.43
2017-06-13T06:00:46.530Z,999.46
2017-06-13T06:01:56.604Z,999.46
2017-06-13T06:03:06.633Z,999.43
2017-06-13T06:04:16.672Z,999.43
2017-06-13T06:05:27.069Z,999.49
2017-06-13T06:06:37.411Z,999.49
2017-06-13T06:07:47.764Z,999.48
2017-06-13T06:08:58.122Z,999.47
2017-06-13T06:10:08.469Z,999.46
2017-06-13T06:11:18.867Z,999.48
2017-06-13T06:12:28.608Z,999.51
2017-06-13T06:13:38.961Z,999.72
2017-06-13T06:14:48.697Z,1000
2017-06-13T06:15:59.043Z,1000.13
2017-06-13T06:17:09.427Z,1000.03
2017-06-13T06:18:19.773Z,999.81
2017-06-13T06:19:30.120Z,999.78
2017-06-13T06:20:39.845Z,999.67
2017-06-13T06:21:50.203Z,999.72
2017-06-13T06:23:00.290Z,999.82
2017-06-13T06:24:10.646Z,999.76
2017-06-13T06:25:20.677Z,999.75
2017-06-13T06:26:30.738Z,999.81
2017-06-13T06:27:41.092Z,999.77
2017-06-13T06:28:51.492Z,999.65
2017-06-13T06:30:01.838Z,999.68
2017-06-13T06:31:12.186Z,999.63
2017-06-13T06:32:22.540Z,999.61
2017-06-13T06:33:32.881Z,999.56
2017-06-13T06:34:43.262Z,999.55
2017-06-13T06:35:53.614Z,999.56
2017-06-13T06:37:03.961Z,999.5
2017-06-13T06:38:14.303Z,999.51
2017-06-13T06:39:24.370Z,999.55
2017-06-13T06:40:34.786Z,999.58
2017-06-13T06:41:45.129Z,999.58
2017-06-13T06:42:55.483Z,999.58
2017-06-13T06:44:05.832Z,999.54
2017-06-13T06:45:16.178Z,999.51
2017-06-13T06:46:26.620Z,999.48
2017-06-13T06:47:36.975Z,999.4
2017-06-13T06:48:46.707Z,999.38
2017-06-13T06:49:57.057Z,999.41
2017-06-13T06:51:07.414Z,999.37
2017-06-13T06:52:17.797Z,999.35
2017-06-13T06:53:27.834Z,999.3
2017-06-13T06:54:38.206Z,999.32
2017-06-13T06:55:48.256Z,999.27
2017-06-13T06:56:58.285Z,999.27
2017-06-13T06:58:08.687Z,999.26
2017-06-13T06:59:19.043Z,999.27
2017-06-13T07:00:29.066Z,999.26
2017-06-13T07:01:39.408Z,999.24
2017-06-13T07:02:49.470Z,999.24
2017-06-13T07:03:59.861Z,999.26
2017-06-13T07:05:10.198Z,999.24
2017-06-13T07:06:20.544Z,999.23
2017-06-13T07:07:30.904Z,999.24
2017-06-13T07:08:41.258Z,999.19
2017-06-13T07:09:51.684Z,999.18
2017-06-13T07:11:02.035Z,999.17
2017-06-13T07:12:12.079Z,999.12
2017-06-13T07:13:22.421Z,999.12
2017-06-13T07:14:32.792Z,999.08
2017-06-13T07:15:43.191Z,999.02
2017-06-13T07:16:53.232Z,999.03
2017-06-13T07:18:02.950Z,999.06
2017-06-13T07:19:13.301Z,999.06
2017-06-13T07:20:23.651Z,999.1
2017-06-13T07:21:34.059Z,999.08
2017-06-13T07:22:44.104Z,999.08
2017-06-13T07:23:54.460Z,999.04
2017-06-13T07:25:04.798Z,999.13
2017-06-13T07:26:15.144Z,999.03
2017-06-13T07:27:24.638Z,999.04
2017-06-13T07:28:34.989Z,999.02
2017-06-13T07:29:44.729Z,999
2017-06-13T07:30:54.753Z,998.93
2017-06-13T07:32:05.144Z,999
2017-06-13T07:33:15.556Z,998.95
2017-06-13T07:34:25.582Z,999.03
2017-06-13T07:35:35.918Z,998.97
2017-06-13T07:36:46.292Z,998.93
2017-06-13T07:37:56.338Z,998.94
2017-06-13T07:39:06.419Z,998.9
2017-06-13T07:40:16.452Z,998.94
2017-06-13T07:41:26.468Z,998.99
2017-06-13T07:42:36.511Z,998.91
2017-06-13T07:43:46.877Z,998.87
2017-06-13T07:44:56.969Z,998.86
2017-06-13T07:46:07.024Z,998.85
2017-06-13T07:47:17.062Z,998.83
2017-06-13T07:48:27.429Z,998.85
2017-06-13T07:49:37.777Z,998.83
2017-06-13T07:50:48.191Z,998.82
2017-06-13T07:51:58.222Z,998.85
2017-06-13T07:53:08.276Z,998.78
2017-06-13T07:54:18.618Z,998.83
2017-06-13T07:55:28.647Z,998.89
2017-06-13T07:56:38.734Z,998.89
2017-06-13T07:57:48.802Z,998.82
2017-06-13T07:58:59.155Z,998.8
2017-06-13T08:00:09.521Z,998.82
2017-06-13T08:01:19.576Z,998.82
2017-06-13T08:02:29.989Z,998.82
2017-06-13T08:03:40.336Z,998.83
2017-06-13T08:04:50.715Z,998.77
2017-06-13T08:06:00.743Z,998.77
2017-06-13T08:07:11.097Z,998.84
2017-06-13T08:08:21.468Z,998.81
2017-06-13T08:09:31.817Z,998.83
2017-06-13T08:10:41.872Z,998.83
2017-06-13T08:11:51.934Z,998.83
2017-06-13T08:13:01.976Z,998.84
2017-06-13T08:14:12.391Z,998.78
2017-06-13T08:15:22.479Z,998.79
2017-06-13T08:16:32.869Z,998.73
2017-06-13T08:17:43.233Z,998.74
2017-06-13T08:18:53.587Z,998.71
2017-06-13T08:20:03.990Z,998.7
2017-06-13T08:21:14.352Z,998.69
2017-06-13T08:22:24.078Z,998.7
2017-06-13T08:23:34.422Z,998.66
2017-06-13T08:24:44.762Z,998.74
2017-06-13T08:25:54.538Z,998.71
2017-06-13T08:27:04.877Z,998.68
2017-06-13T08:28:14.899Z,998.66
2017-06-13T08:29:24.938Z,998.65
2017-06-13T08:30:35.286Z,998.68
2017-06-13T08:31:45.373Z,998.66
2017-06-13T08:32:55.420Z,998.64
2017-06-13T08:34:05.767Z,998.67
2017-06-13T08:35:15.826Z,998.64
2017-06-13T08:36:25.873Z,998.61
2017-06-13T08:37:36.261Z,998.62
2017-06-13T08:38:46.616Z,998.56
2017-06-13T08:39:56.681Z,998.57
2017-06-13T08:41:06.414Z,998.59
2017-06-13T08:42:16.444Z,998.64
2017-06-13T08:43:26.808Z,998.56
2017-06-13T08:44:37.166Z,998.56
2017-06-13T08:45:47.529Z,998.63
2017-06-13T08:46:57.567Z,998.58
2017-06-13T08:48:07.654Z,998.58
2017-06-13T08:49:18.020Z,998.55
2017-06-13T08:50:28.380Z,998.48
2017-06-13T08:51:38.422Z,998.54
2017-06-13T08:52:48.783Z,998.48
2017-06-13T08:53:59.184Z,998.55
2017-06-13T08:55:09.536Z,998.57
2017-06-13T08:56:19.876Z,998.54
2017-06-13T08:57:29.914Z,998.51
2017-06-13T08:58:40.270Z,998.53
2017-06-13T08:59:50.353Z,998.5
2017-06-13T09:01:00.419Z,998.49
2017-06-13T09:02:10.763Z,998.46
2017-06-13T09:03:21.106Z,998.52
2017-06-13T09:04:30.848Z,998.44
2017-06-13T09:05:41.266Z,998.46
2017-06-13T09:06:51.623Z,998.5
2017-06-13T09:08:01.674Z,998.46
2017-06-13T09:09:11.405Z,998.46
2017-06-13T09:10:21.803Z,998.49
2017-06-13T09:11:32.240Z,998.44
2017-06-13T09:12:42.609Z,998.39
2017-06-13T09:13:52.959Z,998.34
2017-06-13T09:15:03.311Z,998.36
2017-06-13T09:16:13.659Z,998.34
2017-06-13T09:17:24.072Z,998.34
2017-06-13T09:18:34.415Z,998.35
2017-06-13T09:19:44.502Z,998.29
2017-06-13T09:20:54.550Z,998.29
2017-06-13T09:22:04.693Z,998.34
2017-06-13T09:23:15.048Z,998.31
2017-06-13T09:24:25.394Z,998.25
2017-06-13T09:25:35.433Z,998.27
2017-06-13T09:26:45.803Z,998.23
2017-06-13T09:27:55.847Z,998.21
2017-06-13T09:29:05.945Z,998.18
2017-06-13T09:30:15.978Z,998.21
2017-06-13T09:31:26.345Z,998.15
2017-06-13T09:32:36.696Z,998.15
2017-06-13T09:33:47.044Z,998.15
2017-06-13T09:34:57.135Z,998.21
2017-06-13T09:36:07.186Z,998.26
2017-06-13T09:37:17.244Z,998.23
2017-06-13T09:38:27.594Z,998.2
2017-06-13T09:39:38.281Z,998.17
2017-06-13T09:40:48.716Z,998.19
2017-06-13T09:41:59.065Z,998.12
2017-06-13T09:43:09.427Z,998.12
2017-06-13T09:44:19.468Z,998.11
2017-06-13T09:45:29.820Z,998.15
2017-06-13T09:46:39.598Z,998.11
2017-06-13T09:47:49.628Z,998.03
2017-06-13T09:48:59.994Z,998.08
2017-06-13T09:50:10.027Z,998.04
2017-06-13T09:51:19.760Z,998.1
2017-06-13T09:52:30.151Z,998.11
2017-06-13T09:53:40.182Z,998
2017-06-13T09:54:50.558Z,998.06
2017-06-13T09:56:00.916Z,998.05
2017-06-13T09:57:10.967Z,997.99
2017-06-13T09:58:21.051Z,998
2017-06-13T09:59:31.432Z,998.06
2017-06-13T10:00:41.795Z,998.01
2017-06-13T10:01:51.830Z,998.02
2017-06-13T10:03:02.179Z,998.01
2017-06-13T10:04:12.528Z,997.94
2017-06-13T10:05:22.591Z,997.92
2017-06-13T10:06:32.953Z,997.92
2017-06-13T10:07:42.999Z,997.87
2017-06-13T10:08:52.810Z,997.89
2017-06-13T10:10:02.918Z,997.86
2017-06-13T10:19:13.277Z,997.79
2017-06-13T10:20:23.671Z,997.73
2017-06-13T10:21:33.718Z,997.72
2017-06-13T10:22:43.450Z,997.71
2017-06-13T10:23:53.860Z,997.7
2017-06-13T10:25:04.224Z,997.72
2017-06-13T10:26:14.266Z,997.74
2017-06-13T10:27:24.321Z,997.66
2017-06-13T10:28:34.687Z,997.68
2017-06-13T10:29:45.085Z,997.66
2017-06-13T10:30:55.467Z,997.59
2017-06-13T10:32:05.517Z,997.61
2017-06-13T10:33:15.870Z,997.59
2017-06-13T10:34:26.218Z,997.61
2017-06-13T10:35:36.634Z,997.55
2017-06-13T10:36:46.763Z,997.55
2017-06-13T10:37:57.130Z,997.55
2017-06-13T10:39:07.497Z,997.5
2017-06-13T10:40:17.876Z,997.48
2017-06-13T10:41:28.301Z,997.5
2017-06-13T10:42:38.689Z,997.51
2017-06-13T10:43:48.762Z,997.54
2017-06-13T10:44:59.144Z,997.6
2017-06-13T10:46:09.515Z,997.58
2017-06-13T10:47:19.609Z,997.48
2017-06-13T10:48:29.974Z,997.43
2017-06-13T10:49:40.018Z,997.42
2017-06-13T10:50:50.078Z,997.39
2017-06-13T10:52:00.123Z,997.38
2017-06-13T10:53:10.233Z,997.4
2017-06-13T10:54:20.285Z,997.41
2017-06-13T10:55:30.647Z,997.34
2017-06-13T10:56:41.045Z,997.27
2017-06-13T10:57:51.400Z,997.33
2017-06-13T10:59:01.937Z,997.3
2017-06-13T11:00:12.305Z,997.29
2017-06-13T11:01:22.696Z,997.25
2017-06-13T11:02:33.056Z,997.28
2017-06-13T11:03:42.797Z,997.29
2017-06-13T11:04:53.213Z,997.24
2017-06-13T11:06:03.583Z,997.24
2017-06-13T11:07:13.952Z,997.25
2017-06-13T11:08:24.316Z,997.24
2017-06-13T11:09:34.367Z,997.28
2017-06-13T11:10:44.592Z,997.19
2017-06-13T11:11:54.948Z,997.21
2017-06-13T11:13:05.311Z,997.22
2017-06-13T11:14:15.669Z,997.15
2017-06-13T11:15:26.033Z,997.11
2017-06-13T11:16:36.151Z,997.1
2017-06-13T11:17:46.538Z,997.15
2017-06-13T11:18:56.615Z,997.07
2017-06-13T11:20:06.978Z,997.07
2017-06-13T11:21:17.358Z,997.07
2017-06-13T11:22:27.817Z,997.04
2017-06-13T11:23:37.882Z,997.04
2017-06-13T11:24:48.249Z,997.04
2017-06-13T11:25:58.317Z,997.06
2017-06-13T11:27:08.672Z,997.04
2017-06-13T11:28:18.816Z,997.06
2017-06-13T11:29:28.246Z,997.03
2017-06-13T11:30:37.977Z,996.96
2017-06-13T11:31:48.339Z,997.01
2017-06-13T11:32:58.696Z,996.9
2017-06-13T11:34:09.373Z,997.05
2017-06-13T11:35:19.746Z,996.95
2017-06-13T11:36:30.132Z,997.03
2017-06-13T11:37:40.206Z,996.96
2017-06-13T11:38:50.554Z,996.91
2017-06-13T11:40:00.762Z,996.86
2017-06-13T11:41:10.916Z,996.9
2017-06-13T11:42:20.665Z,996.89
2017-06-13T11:43:31.037Z,996.92
2017-06-13T11:44:41.381Z,996.85
2017-06-13T11:45:51.291Z,996.85
2017-06-13T11:47:01.346Z,996.79
2017-06-13T11:48:11.758Z,996.76
2017-06-13T11:49:21.820Z,996.79
2017-06-13T11:50:31.592Z,996.73
2017-06-13T11:51:41.938Z,996.77
2017-06-13T11:52:52.001Z,996.73
2017-06-13T11:54:02.372Z,996.72
2017-06-13T11:55:12.732Z,996.72
2017-06-13T11:56:22.775Z,996.73
2017-06-13T11:57:33.182Z,996.73
2017-06-13T11:58:43.704Z,996.69
2017-06-13T11:59:53.749Z,996.68
2017-06-13T12:01:04.141Z,996.74
2017-06-13T12:02:14.535Z,996.83
2017-06-13T12:03:24.974Z,996.72
2017-06-13T12:04:35.015Z,996.68
2017-06-13T12:05:45.096Z,996.76
2017-06-13T12:06:55.487Z,996.62
2017-06-13T12:08:05.834Z,996.68
2017-06-13T12:09:16.247Z,996.69
2017-06-13T12:10:26.604Z,996.62
2017-06-13T12:11:36.975Z,996.71
2017-06-13T12:12:47.343Z,996.69
2017-06-13T12:13:57.713Z,996.62
2017-06-13T12:15:07.826Z,996.53
2017-06-13T12:16:18.203Z,996.52
2017-06-13T12:17:28.264Z,996.53
2017-06-13T12:18:38.325Z,996.65
2017-06-13T12:19:48.700Z,996.61
2017-06-13T12:20:59.214Z,996.6
2017-06-13T12:22:09.580Z,996.57
2017-06-13T12:23:19.929Z,996.47
2017-06-13T12:24:29.996Z,996.48
2017-06-13T12:25:40.371Z,996.47
2017-06-13T12:26:50.495Z,996.51
2017-06-13T12:28:00.244Z,996.56
2017-06-13T12:29:10.603Z,996.63
2017-06-13T12:30:20.958Z,996.45
2017-06-13T12:31:31.328Z,996.52
2017-06-13T12:32:41.759Z,996.59
2017-06-13T12:33:51.799Z,996.44
2017-06-13T12:35:02.185Z,996.48
2017-06-13T12:36:12.580Z,996.39
2017-06-13T12:37:22.958Z,996.46
2017-06-13T12:38:33.378Z,996.41
2017-06-13T12:39:43.411Z,996.39
2017-06-13T12:40:53.793Z,996.44
2017-06-13T12:42:04.165Z,996.38
2017-06-13T12:43:13.922Z,996.47
2017-06-13T12:44:24.014Z,996.45
2017-06-13T12:45:34.072Z,996.33
2017-06-13T12:46:44.430Z,996.36
2017-06-13T12:47:54.495Z,996.35
2017-06-13T12:49:04.866Z,996.35
2017-06-13T12:50:14.971Z,996.41
2017-06-13T12:51:25.001Z,996.39
2017-06-13T12:52:35.022Z,996.41
2017-06-13T12:53:45.077Z,996.35
2017-06-13T12:54:55.471Z,996.42
2017-06-13T12:56:05.895Z,996.25
2017-06-13T12:57:15.967Z,996.32
2017-06-13T12:58:26.349Z,996.18
2017-06-13T12:59:36.731Z,996.33
2017-06-13T13:00:47.089Z,996.29
2017-06-13T13:01:57.514Z,996.32
2017-06-13T13:03:07.568Z,996.31
2017-06-13T13:04:17.953Z,996.31
2017-06-13T13:05:28.361Z,996.28
2017-06-13T13:06:38.722Z,996.23
2017-06-13T13:07:49.092Z,996.24
2017-06-13T13:08:59.140Z,996.26
2017-06-13T13:10:09.505Z,996.28
2017-06-13T13:11:19.559Z,996.23
2017-06-13T13:12:29.624Z,996.23
2017-06-13T13:13:39.745Z,996.24
2017-06-13T13:14:50.117Z,996.21
2017-06-13T13:16:00.483Z,996.06
2017-06-13T13:17:10.848Z,996.13
2017-06-13T13:18:21.214Z,996.17
2017-06-13T13:19:31.624Z,996.2
2017-06-13T13:20:41.708Z,996.17
2017-06-13T13:21:52.091Z,996.14
2017-06-13T13:23:02.501Z,996.3
2017-06-13T13:24:12.560Z,996.13
2017-06-13T13:25:22.965Z,996.1
2017-06-13T13:26:33.360Z,996.04
2017-06-13T13:27:43.728Z,996.05
2017-06-13T13:28:54.087Z,996.04
2017-06-13T13:30:04.158Z,996.05
2017-06-13T13:31:14.201Z,996.01
2017-06-13T13:32:24.261Z,996.01
2017-06-13T13:33:34.620Z,995.98
2017-06-13T13:34:44.996Z,995.9
2017-06-13T13:35:55.393Z,995.79
2017-06-13T13:37:05.754Z,995.85
2017-06-13T13:38:16.157Z,995.87
2017-06-13T13:39:26.504Z,995.84
2017-06-13T13:40:36.941Z,995.89
2017-06-13T13:41:47.312Z,995.89
2017-06-13T13:42:57.689Z,995.92
2017-06-13T13:44:08.077Z,995.91
2017-06-13T13:45:18.129Z,995.88
2017-06-13T13:46:28.620Z,995.86
2017-06-13T13:47:38.990Z,995.81
2017-06-13T13:48:49.347Z,995.84
2017-06-13T13:49:59.384Z,995.81
2017-06-13T13:51:09.757Z,995.82
2017-06-13T13:52:19.856Z,995.86
2017-06-13T13:53:30.215Z,995.84
2017-06-13T13:54:40.575Z,995.81
2017-06-13T13:55:50.936Z,995.8
2017-06-13T13:57:00.982Z,995.8
2017-06-13T13:58:11.404Z,995.74
2017-06-13T13:59:21.787Z,995.83
2017-06-13T14:00:32.163Z,995.8
2017-06-13T14:01:42.567Z,995.78
2017-06-13T14:02:52.619Z,995.69
2017-06-13T14:04:03.053Z,995.78
2017-06-13T14:05:13.493Z,995.85
2017-06-13T14:06:23.857Z,995.81
2017-06-13T14:07:33.945Z,995.81
2017-06-13T14:08:44.319Z,995.83
2017-06-13T14:09:54.421Z,995.79
2017-06-13T14:11:04.826Z,995.8
2017-06-13T14:12:14.903Z,995.81
2017-06-13T14:13:25.292Z,995.81
2017-06-13T14:14:35.376Z,995.77
2017-06-13T14:15:45.799Z,995.8
2017-06-13T14:16:56.160Z,995.81
2017-06-13T14:18:05.620Z,995.76
2017-06-13T14:19:15.980Z,995.85
2017-06-13T14:20:26.359Z,995.77
2017-06-13T14:21:36.797Z,995.84
2017-06-13T14:22:47.316Z,995.82
2017-06-13T14:23:57.760Z,995.8
2017-06-13T14:25:08.108Z,995.85
2017-06-13T14:26:18.174Z,995.81
2017-06-13T14:27:28.289Z,995.77
2017-06-13T14:28:38.666Z,995.82
2017-06-13T14:29:49.042Z,995.8
2017-06-13T14:30:58.472Z,995.8
2017-06-13T14:32:08.516Z,995.78
2017-06-13T14:33:18.930Z,995.74
2017-06-13T14:34:29.332Z,995.74
2017-06-13T14:35:39.694Z,995.73
2017-06-13T14:36:50.096Z,995.77
2017-06-13T14:38:00.453Z,995.73
2017-06-13T14:39:10.878Z,995.74
2017-06-13T14:40:21.265Z,995.74
2017-06-13T14:41:31.321Z,995.66
2017-06-13T14:42:41.700Z,995.74
2017-06-13T14:43:52.073Z,995.71
2017-06-13T14:45:02.181Z,995.66
2017-06-13T14:46:12.588Z,995.6
2017-06-13T14:47:22.959Z,995.56
2017-06-13T14:48:33.355Z,995.59
2017-06-13T14:49:43.739Z,995.55
2017-06-13T14:50:54.180Z,995.57
2017-06-13T14:52:04.239Z,995.67
2017-06-13T14:53:14.299Z,995.61
2017-06-13T14:54:24.692Z,995.61
2017-06-13T14:55:34.763Z,995.7
2017-06-13T14:56:44.570Z,995.64
2017-06-13T14:57:54.969Z,995.59
2017-06-13T14:59:05.029Z,995.62
2017-06-13T15:00:15.395Z,995.56
2017-06-13T15:01:25.441Z,995.47
2017-06-13T15:02:35.883Z,995.5
2017-06-13T15:03:46.234Z,995.44
2017-06-13T15:04:55.983Z,995.5
2017-06-13T15:06:06.027Z,995.46
2017-06-13T15:07:16.405Z,995.46
2017-06-13T15:08:26.203Z,995.38
2017-06-13T15:09:36.270Z,995.43
2017-06-13T15:10:46.321Z,995.47
2017-06-13T15:11:56.667Z,995.41
2017-06-13T15:13:07.083Z,995.41
2017-06-13T15:14:17.182Z,995.46
2017-06-13T15:15:26.924Z,995.47
2017-06-13T15:16:36.970Z,995.4